createdAt,value
2018-12-15T00:00:33.993Z,-14.81
2018-12-15T00:04:57.442Z,-14.88
2018-12-15T00:07:26.331Z,-14.99
2018-12-15T00:09:55.083Z,-15.09
2018-12-15T00:12:23.854Z,-15.13
2018-12-15T00:14:52.665Z,-15.21
2018-12-15T00:17:21.303Z,-15.23
2018-12-15T00:19:49.975Z,-15.28
2018-12-15T00:22:19.233Z,-15.32
2018-12-15T00:24:48.203Z,-15.34
2018-12-15T00:27:16.949Z,-15.67
2018-12-15T00:29:45.763Z,-15.44
2018-12-15T00:32:15.000Z,-15.46
2018-12-15T00:34:44.217Z,-15.49
2018-12-15T00:37:13.000Z,-15.48
2018-12-15T00:39:42.778Z,-15.36
2018-12-15T00:42:11.725Z,-15.33
2018-12-15T00:44:40.867Z,-15.40
2018-12-15T00:47:13.696Z,-15.42
2018-12-15T00:49:41.267Z,-15.41
2018-12-15T00:52:10.132Z,-15.43
2018-12-15T00:54:39.326Z,-15.36
2018-12-15T00:57:08.291Z,-15.27
2018-12-15T00:59:37.400Z,-15.24
2018-12-15T01:02:06.425Z,-15.27
2018-12-15T01:04:35.417Z,-15.23
2018-12-15T01:07:04.520Z,-15.20
2018-12-15T01:09:33.664Z,-15.18
2018-12-15T01:12:02.604Z,-15.16
2018-12-15T01:14:31.954Z,-15.18
2018-12-15T01:17:01.020Z,-15.15
2018-12-15T01:19:29.801Z,-15.21
2018-12-15T01:21:58.747Z,-15.27
2018-12-15T01:24:27.648Z,-15.27
2018-12-15T01:26:56.572Z,-15.36
2018-12-15T01:29:25.421Z,-15.40
2018-12-15T01:31:54.502Z,-15.40
2018-12-15T01:34:23.402Z,-15.40
2018-12-15T01:36:52.555Z,-15.45
2018-12-15T01:39:21.345Z,-15.48
2018-12-15T01:41:50.305Z,-15.48
2018-12-15T01:44:19.126Z,-15.50
2018-12-15T01:46:48.561Z,-15.51
2018-12-15T01:49:17.366Z,-15.50
2018-12-15T01:51:46.406Z,-15.48
2018-12-15T01:54:15.332Z,-15.45
2018-12-15T01:56:44.261Z,-15.47
2018-12-15T01:59:13.239Z,-15.49
2018-12-15T02:01:42.329Z,-15.50
2018-12-15T02:04:11.317Z,-15.51
2018-12-15T02:06:40.418Z,-15.51
2018-12-15T02:09:09.315Z,-15.51
2018-12-15T02:11:38.302Z,-15.54
2018-12-15T02:14:07.236Z,-15.53
2018-12-15T02:16:36.329Z,-15.63
2018-12-15T02:19:05.146Z,-15.48
2018-12-15T02:21:34.198Z,-15.47
2018-12-15T02:24:02.990Z,-15.49
2018-12-15T02:26:31.772Z,-15.46
2018-12-15T02:29:01.285Z,-15.46
2018-12-15T02:31:30.279Z,-15.44
2018-12-15T02:33:59.174Z,-15.44
2018-12-15T02:36:28.273Z,-15.45
2018-12-15T02:38:56.934Z,-15.42
2018-12-15T02:41:26.774Z,-15.42
2018-12-15T02:43:55.695Z,-15.44
2018-12-15T02:46:24.699Z,-15.44
2018-12-15T02:48:53.663Z,-15.44
2018-12-15T02:51:22.872Z,-15.43
2018-12-15T02:53:51.780Z,-15.42
2018-12-15T02:56:20.719Z,-15.36
2018-12-15T02:58:50.011Z,-15.32
2018-12-15T03:01:18.979Z,-15.29
2018-12-15T03:03:47.833Z,-15.29
2018-12-15T03:06:16.912Z,-15.29
2018-12-15T03:08:45.990Z,-15.28
2018-12-15T03:11:15.015Z,-15.28
2018-12-15T03:13:43.968Z,-15.29
2018-12-15T03:16:13.105Z,-15.28
2018-12-15T03:18:42.358Z,-15.29
2018-12-15T03:21:11.586Z,-15.29
2018-12-15T03:23:40.905Z,-15.26
2018-12-15T03:26:09.624Z,-15.27
2018-12-15T03:28:38.581Z,-15.29
2018-12-15T03:31:07.645Z,-15.31
2018-12-15T03:33:36.627Z,-15.28
2018-12-15T03:36:05.505Z,-15.25
2018-12-15T03:38:34.358Z,-15.20
2018-12-15T03:41:03.279Z,-15.41
2018-12-15T03:43:32.042Z,-15.13
2018-12-15T03:46:01.043Z,-15.13
2018-12-15T03:48:30.190Z,-15.15
2018-12-15T03:50:59.012Z,-15.13
2018-12-15T03:53:27.670Z,-15.09
2018-12-15T03:55:56.624Z,-15.06
2018-12-15T03:58:25.598Z,-15.06
2018-12-15T04:00:54.609Z,-15.06
2018-12-15T04:03:23.338Z,-15.06
2018-12-15T04:05:52.079Z,-15.06
2018-12-15T04:08:20.749Z,-15.09
2018-12-15T04:10:49.557Z,-15.11
2018-12-15T04:13:18.689Z,-15.14
2018-12-15T04:15:47.265Z,-15.16
2018-12-15T04:18:16.004Z,-15.14
2018-12-15T04:20:44.736Z,-15.16
2018-12-15T04:23:13.514Z,-15.30
2018-12-15T04:25:43.182Z,-15.48
2018-12-15T04:28:12.130Z,-15.64
2018-12-15T04:30:40.901Z,-15.68
2018-12-15T04:33:09.596Z,-15.71
2018-12-15T04:35:38.461Z,-15.73
2018-12-15T04:38:07.091Z,-15.74
2018-12-15T04:40:36.037Z,-15.75
2018-12-15T04:43:04.709Z,-15.77
2018-12-15T04:45:33.724Z,-15.79
2018-12-15T04:48:02.618Z,-15.82
2018-12-15T04:50:31.621Z,-15.82
2018-12-15T04:53:00.466Z,-15.81
2018-12-15T04:55:29.303Z,-15.77
2018-12-15T04:57:58.129Z,-15.70
2018-12-15T05:00:26.748Z,-15.62
2018-12-15T05:02:55.577Z,-15.55
2018-12-15T05:05:24.271Z,-15.46
2018-12-15T05:07:52.999Z,-15.41
2018-12-15T05:10:21.737Z,-15.39
2018-12-15T05:12:50.355Z,-15.40
2018-12-15T05:15:18.935Z,-15.39
2018-12-15T05:17:48.527Z,-15.40
2018-12-15T05:20:17.105Z,-15.37
2018-12-15T05:22:45.975Z,-15.43
2018-12-15T05:25:14.950Z,-15.43
2018-12-15T05:27:43.856Z,-15.44
2018-12-15T05:30:12.679Z,-15.45
2018-12-15T05:32:41.432Z,-15.45
2018-12-15T05:35:10.271Z,-15.47
2018-12-15T05:37:39.250Z,-15.48
2018-12-15T05:40:08.153Z,-15.50
2018-12-15T05:42:36.895Z,-15.53
2018-12-15T05:45:07.316Z,-15.55
2018-12-15T05:47:36.349Z,-15.55
2018-12-15T05:50:05.588Z,-15.58
2018-12-15T05:52:34.286Z,-15.61
2018-12-15T05:55:03.515Z,-15.65
2018-12-15T05:57:32.773Z,-15.69
2018-12-15T06:00:01.568Z,-15.73
2018-12-15T06:02:30.660Z,-15.75
2018-12-15T06:04:59.751Z,-15.78
2018-12-15T06:07:28.384Z,-15.83
2018-12-15T06:09:57.233Z,-15.86
2018-12-15T06:12:25.990Z,-15.89
2018-12-15T06:14:55.634Z,-15.89
2018-12-15T06:17:24.412Z,-15.91
2018-12-15T06:19:56.461Z,-15.92
2018-12-15T06:22:25.294Z,-15.89
2018-12-15T06:24:53.895Z,-15.86
2018-12-15T06:27:22.495Z,-15.88
2018-12-15T06:29:51.420Z,-15.91
2018-12-15T06:32:20.300Z,-15.94
2018-12-15T06:34:49.152Z,-15.91
2018-12-15T06:37:18.027Z,-15.82
2018-12-15T06:39:46.787Z,-15.87
2018-12-15T06:42:15.940Z,-15.95
2018-12-15T06:44:44.797Z,-15.98
2018-12-15T06:47:13.758Z,-15.94
2018-12-15T06:49:42.550Z,-15.91
2018-12-15T06:52:11.624Z,-15.93
2018-12-15T06:54:40.449Z,-15.91
2018-12-15T06:57:09.640Z,-15.92
2018-12-15T06:59:38.630Z,-16.76
2018-12-15T07:02:07.306Z,-15.93
2018-12-15T07:04:36.162Z,-15.96
2018-12-15T07:07:05.132Z,-15.98
2018-12-15T07:09:34.107Z,-15.99
2018-12-15T07:12:03.018Z,-16.04
2018-12-15T07:14:31.897Z,-16.08
2018-12-15T07:17:01.128Z,-16.11
2018-12-15T07:19:29.772Z,-16.13
2018-12-15T07:21:59.448Z,-16.14
2018-12-15T07:24:28.168Z,-16.17
2018-12-15T07:26:57.382Z,-16.19
2018-12-15T07:29:26.356Z,-16.21
2018-12-15T07:31:55.301Z,-16.21
2018-12-15T07:34:24.290Z,-16.23
2018-12-15T07:36:53.269Z,-16.25
2018-12-15T07:39:22.520Z,-18.49
2018-12-15T07:41:51.410Z,-16.28
2018-12-15T07:44:20.396Z,-16.27
2018-12-15T07:46:49.248Z,-16.23
2018-12-15T07:49:17.966Z,-16.25
2018-12-15T07:51:46.654Z,-16.27
2018-12-15T07:54:15.635Z,-16.24
2018-12-15T07:56:44.960Z,-16.23
2018-12-15T07:59:14.200Z,-16.19
2018-12-15T08:01:42.975Z,-16.14
2018-12-15T08:04:11.655Z,-16.10
2018-12-15T08:06:40.378Z,-16.08
2018-12-15T08:09:09.181Z,-16.09
2018-12-15T08:11:43.036Z,-16.09
2018-12-15T08:14:12.054Z,-16.11
2018-12-15T08:16:40.746Z,-16.38
2018-12-15T08:19:09.786Z,-16.11
2018-12-15T08:21:38.589Z,-16.10
2018-12-15T08:24:07.464Z,-16.04
2018-12-15T08:26:36.392Z,-16.01
2018-12-15T08:29:05.231Z,-16.03
2018-12-15T08:31:34.291Z,-16.05
2018-12-15T08:34:03.172Z,-16.06
2018-12-15T08:36:32.030Z,-16.09
2018-12-15T08:39:01.192Z,-16.10
2018-12-15T08:41:30.476Z,-16.12
2018-12-15T08:43:59.208Z,-16.14
2018-12-15T08:46:27.852Z,-16.14
2018-12-15T08:48:56.545Z,-16.08
2018-12-15T08:51:25.762Z,-16.07
2018-12-15T08:53:54.358Z,-16.07
2018-12-15T08:56:23.061Z,-16.05
2018-12-15T08:58:51.780Z,-16.04
2018-12-15T09:01:20.604Z,-16.08
2018-12-15T09:03:49.288Z,-16.13
2018-12-15T09:06:18.429Z,-16.16
2018-12-15T09:08:47.096Z,-16.13
2018-12-15T09:11:15.867Z,-16.14
2018-12-15T09:13:44.928Z,-16.15
2018-12-15T09:16:13.744Z,-16.12
2018-12-15T09:18:42.478Z,-16.08
2018-12-15T09:21:11.447Z,-16.04
2018-12-15T09:23:40.622Z,-15.99
2018-12-15T09:26:09.307Z,-15.96
2018-12-15T09:28:38.214Z,-15.94
2018-12-15T09:31:07.011Z,-15.93
2018-12-15T09:33:35.807Z,-15.90
2018-12-15T09:36:04.547Z,-15.90
2018-12-15T09:38:33.330Z,-15.91
2018-12-15T09:41:02.115Z,-15.89
2018-12-15T09:43:31.003Z,-15.86
2018-12-15T09:45:59.713Z,-15.85
2018-12-15T09:48:28.417Z,-15.86
2018-12-15T09:50:57.350Z,-15.85
2018-12-15T09:53:26.178Z,-15.84
2018-12-15T09:55:54.935Z,-15.85
2018-12-15T09:58:24.219Z,-15.84
2018-12-15T10:00:53.160Z,-15.84
2018-12-15T10:03:22.009Z,-15.82
2018-12-15T10:05:50.882Z,-15.80
2018-12-15T10:08:19.935Z,-15.80
2018-12-15T10:10:48.841Z,-15.77
2018-12-15T10:13:17.928Z,-15.81
2018-12-15T10:15:47.602Z,-15.82
2018-12-15T10:18:16.771Z,-15.78
2018-12-15T10:20:45.770Z,-15.78
2018-12-15T10:23:14.782Z,-15.76
2018-12-15T10:25:43.620Z,-15.76
2018-12-15T10:28:12.408Z,-15.74
2018-12-15T10:30:46.166Z,-15.76
2018-12-15T10:33:15.295Z,-15.81
2018-12-15T10:35:43.893Z,-15.80
2018-12-15T10:38:12.785Z,-15.80
2018-12-15T10:40:41.481Z,-15.83
2018-12-15T10:43:10.507Z,-15.88
2018-12-15T10:45:39.815Z,-15.85
2018-12-15T10:48:08.919Z,-15.82
2018-12-15T10:50:37.948Z,-15.81
2018-12-15T10:53:06.648Z,-15.76
2018-12-15T10:55:35.413Z,-15.75
2018-12-15T10:58:03.997Z,-15.72
2018-12-15T11:00:37.865Z,-15.70
2018-12-15T11:03:06.588Z,-15.71
2018-12-15T11:05:35.308Z,-15.70
2018-12-15T11:08:04.034Z,-15.69
2018-12-15T11:10:32.734Z,-15.67
2018-12-15T11:13:01.398Z,-15.67
2018-12-15T11:15:31.735Z,-15.62
2018-12-15T11:18:00.988Z,-15.63
2018-12-15T11:20:30.264Z,-15.66
2018-12-15T11:22:59.958Z,-15.64
2018-12-15T11:25:28.913Z,-15.64
2018-12-15T11:27:57.566Z,-15.63
2018-12-15T11:30:26.315Z,-15.65
2018-12-15T11:32:55.026Z,-15.64
2018-12-15T11:35:24.458Z,-15.68
2018-12-15T11:37:55.291Z,-15.72
2018-12-15T11:40:23.979Z,-15.77
2018-12-15T11:42:52.719Z,-15.80
2018-12-15T11:45:21.684Z,-15.82
2018-12-15T11:47:50.358Z,-15.85
2018-12-15T11:50:19.295Z,-15.90
2018-12-15T11:52:48.038Z,-15.91
2018-12-15T11:55:16.729Z,-16.00
2018-12-15T11:57:45.438Z,-16.06
2018-12-15T12:00:14.381Z,-16.09
2018-12-15T12:02:43.286Z,-16.14
2018-12-15T12:05:12.255Z,-16.17
2018-12-15T12:07:41.007Z,-16.22
2018-12-15T12:10:09.962Z,-16.29
2018-12-15T12:12:38.741Z,-16.30
2018-12-15T12:15:07.739Z,-16.32
2018-12-15T12:17:36.959Z,-16.34
2018-12-15T12:20:07.228Z,-16.37
2018-12-15T12:22:36.399Z,-16.41
2018-12-15T12:25:05.495Z,-16.44
2018-12-15T12:27:34.332Z,-16.46
2018-12-15T12:30:03.286Z,-16.52
2018-12-15T12:32:31.922Z,-16.50
2018-12-15T12:35:00.993Z,-16.50
2018-12-15T12:38:32.559Z,-16.48
2018-12-15T12:41:01.395Z,-16.49
2018-12-15T12:43:30.106Z,-16.50
2018-12-15T12:45:58.819Z,-16.51
2018-12-15T12:48:27.502Z,-16.49
2018-12-15T12:50:56.319Z,-16.47
2018-12-15T12:53:25.408Z,-16.49
2018-12-15T12:55:54.255Z,-16.49
2018-12-15T12:58:23.680Z,-16.52
2018-12-15T13:00:52.685Z,-16.57
2018-12-15T13:03:21.529Z,-16.58
2018-12-15T13:05:50.488Z,-16.61
2018-12-15T13:08:19.335Z,-16.64
2018-12-15T13:10:48.227Z,-16.65
2018-12-15T13:13:17.231Z,-16.64
2018-12-15T13:15:46.020Z,-16.61
2018-12-15T13:18:14.888Z,-16.63
2018-12-15T13:20:44.106Z,-16.65
2018-12-15T13:23:13.465Z,-16.69
2018-12-15T13:25:43.350Z,-16.72
2018-12-15T13:28:12.320Z,-16.72
2018-12-15T13:30:41.042Z,-16.73
2018-12-15T13:33:40.245Z,-16.72
2018-12-15T13:36:17.509Z,-16.80
2018-12-15T13:38:46.902Z,-16.83
2018-12-15T13:41:15.640Z,-16.88
2018-12-15T13:43:44.359Z,-16.97
2018-12-15T13:46:13.172Z,-17.02
2018-12-15T13:48:41.780Z,-17.03
2018-12-15T13:51:10.673Z,-17.04
2018-12-15T13:53:39.799Z,-17.04
2018-12-15T13:56:08.762Z,-17.04
2018-12-15T13:58:37.694Z,-17.04
2018-12-15T14:01:06.447Z,-17.05
2018-12-15T14:03:35.759Z,-17.08
2018-12-15T14:06:04.787Z,-17.08
2018-12-15T14:08:33.681Z,-17.08
2018-12-15T14:11:03.239Z,-17.08
2018-12-15T14:13:31.983Z,-17.09
2018-12-15T14:16:00.745Z,-17.10
2018-12-15T14:18:29.517Z,-17.07
2018-12-15T14:20:58.220Z,-17.06
2018-12-15T14:23:26.836Z,-17.07
2018-12-15T14:25:55.567Z,-17.06
2018-12-15T14:28:24.339Z,-17.08
2018-12-15T14:30:53.098Z,-17.06
2018-12-15T14:33:22.266Z,-17.06
2018-12-15T14:35:51.452Z,-17.04
2018-12-15T14:38:20.340Z,-17.04
2018-12-15T14:40:49.162Z,-17.01
2018-12-15T14:43:18.259Z,-16.98
2018-12-15T14:45:47.110Z,-16.99
2018-12-15T14:48:15.787Z,-16.99
2018-12-15T14:50:44.746Z,-17.01
2018-12-15T14:53:13.462Z,-17.01
2018-12-15T14:55:42.282Z,-16.99
2018-12-15T14:58:11.048Z,-17.01
2018-12-15T15:00:39.867Z,-17.05
2018-12-15T15:03:08.695Z,-17.06
2018-12-15T15:05:37.624Z,-17.07
2018-12-15T15:08:06.642Z,-22.63
2018-12-15T15:10:35.563Z,-17.04
2018-12-15T15:13:04.364Z,-17.06
2018-12-15T15:15:33.463Z,-17.19
2018-12-15T15:18:02.277Z,-17.22
2018-12-15T15:20:30.941Z,-17.24
2018-12-15T15:22:59.744Z,-17.32
2018-12-15T15:25:28.537Z,-17.34
2018-12-15T15:27:57.208Z,-17.30
2018-12-15T15:30:26.055Z,-17.28
2018-12-15T15:32:54.850Z,-17.25
2018-12-15T15:35:24.404Z,-17.23
2018-12-15T15:37:53.097Z,-17.26
2018-12-15T15:40:21.944Z,-17.31
2018-12-15T15:42:50.696Z,-17.36
2018-12-15T15:45:19.481Z,-17.40
2018-12-15T15:47:48.244Z,-17.45
2018-12-15T15:50:16.920Z,-17.46
2018-12-15T15:52:45.622Z,-17.50
2018-12-15T15:55:14.609Z,-17.55
2018-12-15T15:57:43.744Z,-18.87
2018-12-15T16:00:12.850Z,-17.62
2018-12-15T16:02:41.910Z,-17.64
2018-12-15T16:05:10.601Z,-17.64
2018-12-15T16:07:39.349Z,-17.66
2018-12-15T16:10:13.618Z,-17.65
2018-12-15T16:12:42.792Z,-17.64
2018-12-15T16:15:12.012Z,-17.65
2018-12-15T16:17:41.263Z,-17.68
2018-12-15T16:20:12.277Z,-17.73
2018-12-15T16:22:41.511Z,-17.75
2018-12-15T16:25:11.183Z,-17.78
2018-12-15T16:27:40.208Z,-17.80
2018-12-15T16:30:12.069Z,-17.77
2018-12-15T16:32:40.994Z,-17.83
2018-12-15T16:35:10.421Z,-17.83
2018-12-15T16:37:39.162Z,-17.83
2018-12-15T16:40:08.461Z,-17.83
2018-12-15T16:42:37.415Z,-17.85
2018-12-15T16:45:08.518Z,-17.87
2018-12-15T16:47:37.254Z,-17.89
2018-12-15T16:50:07.579Z,-17.89
2018-12-15T16:52:36.571Z,-17.86
2018-12-15T16:55:05.805Z,-17.87
2018-12-15T16:57:34.488Z,-17.88
2018-12-15T17:00:03.325Z,-17.88
2018-12-15T17:02:32.383Z,-17.87
2018-12-15T17:05:01.416Z,-17.86
2018-12-15T17:07:30.294Z,-17.86
2018-12-15T17:09:59.271Z,-17.86
2018-12-15T17:12:28.042Z,-17.90
2018-12-15T17:14:56.945Z,-17.89
2018-12-15T17:17:25.858Z,-17.90
2018-12-15T17:19:54.590Z,-17.92
2018-12-15T17:22:23.305Z,-17.89
2018-12-15T17:24:52.319Z,-17.86
2018-12-15T17:27:28.774Z,-17.87
2018-12-15T17:29:57.458Z,-17.88
2018-12-15T17:32:26.476Z,-17.88
2018-12-15T17:34:55.185Z,-17.85
2018-12-15T17:37:24.003Z,-17.84
2018-12-15T17:39:53.240Z,-17.86
2018-12-15T17:42:22.025Z,-17.88
2018-12-15T17:44:50.828Z,-17.88
2018-12-15T17:47:20.246Z,-17.92
2018-12-15T17:49:48.900Z,-17.90
2018-12-15T17:52:17.965Z,-17.94
2018-12-15T17:54:46.730Z,-17.94
2018-12-15T17:57:16.639Z,-17.92
2018-12-15T17:59:45.486Z,-17.93
2018-12-15T18:02:14.307Z,-17.99
2018-12-15T18:04:43.120Z,-18.01
2018-12-15T18:07:11.983Z,-18.03
2018-12-15T18:09:41.126Z,-18.04
2018-12-15T18:12:10.285Z,-18.00
2018-12-15T18:14:39.517Z,-17.98
2018-12-15T18:17:10.373Z,-18.01
2018-12-15T18:19:39.326Z,-18.01
2018-12-15T18:22:08.031Z,-18.02
2018-12-15T18:24:36.957Z,-17.99
2018-12-15T18:27:06.023Z,-17.98
2018-12-15T18:29:34.933Z,-18.02
2018-12-15T18:32:04.322Z,-18.03
2018-12-15T18:34:33.649Z,-18.04
2018-12-15T18:37:02.597Z,-18.06
2018-12-15T18:39:31.910Z,-18.04
2018-12-15T18:42:00.748Z,-18.04
2018-12-15T18:44:29.482Z,-18.00
2018-12-15T18:46:58.312Z,-18.00
2018-12-15T18:49:27.130Z,-17.96
2018-12-15T18:51:56.095Z,-17.94
2018-12-15T18:54:25.002Z,-17.90
2018-12-15T18:56:53.916Z,-17.88
2018-12-15T18:59:22.610Z,-17.88
2018-12-15T19:01:51.545Z,-17.86
2018-12-15T19:04:20.715Z,-17.83
2018-12-15T19:06:49.490Z,-17.81
2018-12-15T19:09:18.987Z,-17.79
2018-12-15T19:11:48.087Z,-17.77
2018-12-15T19:14:16.924Z,-17.74
2018-12-15T19:16:45.985Z,-17.70
2018-12-15T19:19:14.977Z,-17.68
2018-12-15T19:21:44.029Z,-17.66
2018-12-15T19:24:13.016Z,-17.67
2018-12-15T19:26:42.802Z,-17.76
2018-12-15T19:29:11.802Z,-17.75
2018-12-15T19:31:40.769Z,-17.73
2018-12-15T19:34:09.420Z,-17.70
2018-12-15T19:36:38.085Z,-17.71
2018-12-15T19:39:07.901Z,-17.72
2018-12-15T19:41:36.815Z,-17.73
2018-12-15T19:44:05.609Z,-19.07
2018-12-15T19:46:34.462Z,-17.74
2018-12-15T19:49:03.137Z,-17.71
2018-12-15T19:51:32.176Z,-17.69
2018-12-15T19:54:01.332Z,-17.73
2018-12-15T19:56:30.478Z,-17.81
2018-12-15T19:58:59.391Z,-17.83
2018-12-15T20:01:28.439Z,-17.93
2018-12-15T20:03:57.615Z,-18.00
2018-12-15T20:06:26.373Z,-18.04
2018-12-15T20:08:55.276Z,-18.02
2018-12-15T20:11:24.686Z,-18.34
2018-12-15T20:13:53.340Z,-18.10
2018-12-15T20:16:22.187Z,-18.14
2018-12-15T20:18:51.288Z,-18.13
2018-12-15T20:21:20.305Z,-18.20
2018-12-15T20:23:49.158Z,-18.29
2018-12-15T20:26:18.222Z,-18.29
2018-12-15T20:28:47.000Z,-18.31
2018-12-15T20:31:15.690Z,-18.29
2018-12-15T20:33:44.489Z,-18.26
2018-12-15T20:36:13.374Z,-18.25
2018-12-15T20:38:42.365Z,-18.26
2018-12-15T20:41:11.152Z,-18.24
2018-12-15T20:43:40.010Z,-18.23
2018-12-15T20:46:08.961Z,-18.19
2018-12-15T20:48:37.945Z,-18.15
2018-12-15T20:51:07.023Z,-18.13
2018-12-15T20:53:36.052Z,-18.09
2018-12-15T20:56:05.095Z,-18.06
2018-12-15T20:58:33.967Z,-18.03
2018-12-15T21:01:03.073Z,-18.00
2018-12-15T21:03:31.960Z,-17.98
2018-12-15T21:06:00.893Z,-17.94
2018-12-15T21:08:30.016Z,-17.93
2018-12-15T21:10:58.953Z,-17.92
2018-12-15T21:13:28.069Z,-17.92
2018-12-15T21:15:58.668Z,-17.87
2018-12-15T21:18:27.601Z,-17.86
2018-12-15T21:20:57.022Z,-17.84
2018-12-15T21:23:25.828Z,-17.86
2018-12-15T21:25:54.660Z,-17.87
2018-12-15T21:28:23.414Z,-17.87
2018-12-15T21:30:52.048Z,-17.84
2018-12-15T21:33:21.216Z,-17.84
2018-12-15T21:35:50.292Z,-17.82
2018-12-15T21:38:18.953Z,-17.85
2018-12-15T21:40:47.709Z,-17.85
2018-12-15T21:43:16.467Z,-17.86
2018-12-15T21:45:45.192Z,-17.88
2018-12-15T21:48:13.881Z,-17.84
2018-12-15T21:50:42.731Z,-17.79
2018-12-15T21:53:11.442Z,-17.83
2018-12-15T21:55:40.194Z,-17.89
2018-12-15T21:58:09.064Z,-17.91
2018-12-15T22:00:38.437Z,-17.92
2018-12-15T22:03:07.311Z,-17.92
2018-12-15T22:05:36.068Z,-17.91
2018-12-15T22:08:04.883Z,-17.93
2018-12-15T22:10:33.620Z,-17.90
2018-12-15T22:13:02.427Z,-17.87
2018-12-15T22:15:31.103Z,-17.88
2018-12-15T22:17:59.993Z,-17.86
2018-12-15T22:20:29.241Z,-17.85
2018-12-15T22:22:58.303Z,-17.85
2018-12-15T22:25:27.162Z,-17.83
2018-12-15T22:27:56.182Z,-17.81
2018-12-15T22:30:24.929Z,-17.80
2018-12-15T22:32:53.948Z,-17.83
2018-12-15T22:35:22.674Z,-17.81
2018-12-15T22:37:51.427Z,-17.80
2018-12-15T22:40:20.488Z,-17.79
2018-12-15T22:44:06.356Z,-17.79
2018-12-15T22:46:35.333Z,-17.81
2018-12-15T22:49:03.916Z,-17.82
2018-12-15T22:51:32.562Z,-17.80
2018-12-15T22:54:01.606Z,-17.80
2018-12-15T22:56:31.071Z,-17.85
2018-12-15T22:58:59.709Z,-17.83
2018-12-15T23:01:30.559Z,-17.82
2018-12-15T23:03:59.208Z,-17.82
2018-12-15T23:06:28.113Z,-17.81
2018-12-15T23:08:57.617Z,-17.86
2018-12-15T23:11:26.453Z,-17.86
2018-12-15T23:13:55.139Z,-17.87
2018-12-15T23:17:26.623Z,-17.85
2018-12-15T23:19:55.385Z,-17.83
2018-12-15T23:22:24.130Z,-17.82
2018-12-15T23:24:53.280Z,-17.81
2018-12-15T23:27:22.061Z,-17.79
2018-12-15T23:29:51.072Z,-17.77
2018-12-15T23:32:19.758Z,-17.76
2018-12-15T23:34:48.652Z,-17.79
2018-12-15T23:37:17.661Z,-17.79
2018-12-15T23:39:46.503Z,-17.77
2018-12-15T23:42:15.123Z,-17.82
2018-12-15T23:44:44.151Z,-17.82
2018-12-15T23:47:13.254Z,-17.80
2018-12-15T23:49:42.177Z,-17.76
2018-12-15T23:52:11.262Z,-17.76
2018-12-15T23:54:40.299Z,-17.77
2018-12-15T23:57:08.971Z,-17.78
2018-12-15T23:59:37.847Z,-17.77
